Time;durP1;ratioP1;P1;durP2;ratioP2;P2;SDS_P1;SDS_P2;PMS_P1;PMS_P2;Temp;Humidity;BMP_temperature;BMP_pressure;BME280_temperature;BME280_humidity;BME280_pressure;Samples;Min_cycle;Max_cycle;Signal;HPM_P1;HPM_P2
2023/04/23 00:01:38;;;;;;;48.03;35.92;;;7.90;99.90;;;;;;7376862;19;20074;-67
2023/04/23 00:04:07;;;;;;;49.60;35.67;;;7.90;99.90;;;;;;7378389;19;20086;-67
2023/04/23 00:06:34;;;;;;;52.08;35.88;;;7.90;99.90;;;;;;7377486;19;20680;-67
2023/04/23 00:09:02;;;;;;;45.70;33.65;;;7.90;99.90;;;;;;7378419;19;20061;-67
2023/04/23 00:11:29;;;;;;;46.38;34.58;;;7.80;99.90;;;;;;7375029;19;20038;-67
2023/04/23 00:13:55;;;;;;;49.55;34.72;;;7.90;99.90;;;;;;7378377;19;20660;-66
2023/04/23 00:16:23;;;;;;;49.97;35.78;;;7.80;99.90;;;;;;7380168;19;20055;-66
2023/04/23 00:18:49;;;;;;;48.90;35.20;;;7.80;99.90;;;;;;7373220;19;20043;-66
2023/04/23 00:21:18;;;;;;;50.33;35.78;;;7.80;99.90;;;;;;7374916;19;20023;-66
2023/04/23 00:23:45;;;;;;;48.35;35.13;;;7.80;99.90;;;;;;7374859;19;20047;-67
2023/04/23 00:26:11;;;;;;;51.17;36.80;;;7.80;99.90;;;;;;7376691;19;20014;-66
2023/04/23 00:28:37;;;;;;;49.30;34.75;;;7.80;99.90;;;;;;7376343;19;21155;-66
2023/04/23 00:31:03;;;;;;;44.20;33.08;;;7.80;99.90;;;;;;7377229;19;20026;-67
2023/04/23 00:33:30;;;;;;;48.35;34.53;;;7.80;99.90;;;;;;7374330;19;20022;-67
2023/04/23 00:35:57;;;;;;;47.38;35.67;;;7.80;99.90;;;;;;7379463;19;20957;-66
2023/04/23 00:38:25;;;;;;;46.75;31.65;;;7.80;99.90;;;;;;7376707;19;20026;-66
2023/04/23 00:40:51;;;;;;;47.15;33.92;;;7.70;99.90;;;;;;7375111;19;20018;-66
2023/04/23 00:43:18;;;;;;;47.05;33.55;;;7.70;99.90;;;;;;7376557;19;20031;-66
2023/04/23 00:45:44;;;;;;;55.35;36.10;;;7.70;99.90;;;;;;7370546;19;20411;-67
2023/04/23 00:48:11;;;;;;;58.13;38.75;;;7.70;99.90;;;;;;7377093;19;20104;-67
2023/04/23 00:50:37;;;;;;;54.03;35.70;;;7.70;99.90;;;;;;7374639;19;20677;-67
2023/04/23 00:53:03;;;;;;;57.65;35.88;;;7.60;99.90;;;;;;7379288;19;20035;-67
2023/04/23 00:55:29;;;;;;;55.83;36.80;;;7.60;99.90;;;;;;7372768;19;20006;-67
2023/04/23 00:57:56;;;;;;;63.78;38.28;;;7.60;99.90;;;;;;7375045;19;20450;-64
2023/04/23 01:00:22;;;;;;;64.60;40.13;;;7.60;99.90;;;;;;7376367;19;20026;-64
2023/04/23 01:02:51;;;;;;;61.17;40.15;;;7.60;99.90;;;;;;7371650;19;20025;-64
2023/04/23 01:05:19;;;;;;;61.95;39.15;;;7.60;99.90;;;;;;7371154;19;20018;-64
2023/04/23 01:07:46;;;;;;;68.93;43.25;;;7.60;99.90;;;;;;7370503;19;20479;-65
2023/04/23 01:10:13;;;;;;;63.60;42.90;;;7.60;99.90;;;;;;7376423;19;20018;-64
2023/04/23 01:12:42;;;;;;;68.97;44.00;;;7.50;99.90;;;;;;7364217;19;20018;-64
2023/04/23 01:15:09;;;;;;;71.07;45.97;;;7.60;99.90;;;;;;7374256;19;21864;-64
2023/04/23 01:17:35;;;;;;;82.72;51.70;;;7.60;99.90;;;;;;7370301;19;20074;-64
2023/04/23 01:20:05;;;;;;;80.78;50.83;;;7.60;99.90;;;;;;7372287;19;20806;-64
2023/04/23 01:22:36;;;;;;;91.78;55.75;;;7.60;99.90;;;;;;7372039;19;20030;-64
2023/04/23 01:25:03;;;;;;;83.53;51.35;;;7.60;99.90;;;;;;7374035;19;21005;-64
2023/04/23 01:27:30;;;;;;;92.03;53.80;;;7.60;99.90;;;;;;7372510;19;20183;-64
2023/04/23 01:29:57;;;;;;;86.90;52.38;;;7.60;99.90;;;;;;7371695;19;20902;-64
2023/04/23 01:32:24;;;;;;;86.03;54.53;;;7.60;99.90;;;;;;7373895;19;20081;-64
2023/04/23 01:34:53;;;;;;;91.35;54.95;;;7.60;99.90;;;;;;7371596;19;20470;-64
2023/04/23 01:37:20;;;;;;;91.32;55.38;;;7.60;99.90;;;;;;7373338;19;20029;-64
2023/04/23 01:39:46;;;;;;;96.30;55.45;;;7.60;99.90;;;;;;7370063;19;20347;-64
2023/04/23 01:42:13;;;;;;;103.35;59.50;;;7.60;99.90;;;;;;7375635;19;20019;-64
2023/04/23 01:44:40;;;;;;;106.95;60.17;;;7.60;99.90;;;;;;7370929;19;20026;-64
2023/04/23 01:47:06;;;;;;;97.50;56.08;;;7.60;99.90;;;;;;7372697;19;20010;-64
2023/04/23 01:49:32;;;;;;;111.35;62.60;;;7.60;99.90;;;;;;7369438;19;20017;-63
2023/04/23 01:51:58;;;;;;;120.13;65.28;;;7.60;99.90;;;;;;7371253;19;20044;-63
2023/04/23 01:54:25;;;;;;;107.55;60.97;;;7.60;99.90;;;;;;7371086;19;20018;-64
2023/04/23 01:56:53;;;;;;;122.75;64.93;;;7.60;99.90;;;;;;7371582;19;20041;-63
2023/04/23 01:59:21;;;;;;;114.25;64.38;;;7.60;99.90;;;;;;7369153;19;20609;-65
2023/04/23 02:01:48;;;;;;;109.05;64.72;;;7.60;99.90;;;;;;7371813;19;20030;-63
2023/04/23 02:04:18;;;;;;;127.00;68.43;;;7.50;99.90;;;;;;7370706;19;20015;-63
2023/04/23 02:06:53;;;;;;;121.72;67.60;;;7.50;99.90;;;;;;7369415;19;20716;-64
2023/04/23 02:09:20;;;;;;;117.63;65.35;;;7.50;99.90;;;;;;7371633;19;20018;-63
2023/04/23 02:11:47;;;;;;;125.80;67.38;;;7.40;99.90;;;;;;7372950;19;20007;-63
2023/04/23 02:14:13;;;;;;;120.78;66.05;;;7.40;99.90;;;;;;7369767;19;20029;-64
2023/04/23 02:16:39;;;;;;;116.63;64.35;;;7.40;99.90;;;;;;7370947;19;20014;-66
2023/04/23 02:19:05;;;;;;;115.68;64.63;;;7.40;99.90;;;;;;7372032;19;20023;-66
2023/04/23 02:21:32;;;;;;;117.32;65.68;;;7.40;99.90;;;;;;7369320;19;20022;-66
2023/04/23 02:23:58;;;;;;;111.60;63.50;;;7.30;99.90;;;;;;7369440;19;20018;-66
2023/04/23 02:26:25;;;;;;;122.25;66.53;;;7.30;99.90;;;;;;7371781;19;20019;-66
2023/04/23 02:28:51;;;;;;;139.30;72.25;;;7.30;99.90;;;;;;7366289;19;20506;-66
2023/04/23 02:31:19;;;;;;;107.25;66.68;;;7.30;99.90;;;;;;7373795;19;20017;-67
2023/04/23 02:33:45;;;;;;;125.55;65.93;;;7.20;99.90;;;;;;7372400;19;20932;-66
2023/04/23 02:36:13;;;;;;;126.43;66.55;;;7.20;99.90;;;;;;7370041;19;20926;-66
2023/04/23 02:38:41;;;;;;;109.13;60.80;;;7.10;99.90;;;;;;7368594;19;20473;-66
2023/04/23 02:41:07;;;;;;;124.82;63.97;;;7.10;99.90;;;;;;7371454;19;20371;-67
2023/04/23 02:43:33;;;;;;;109.88;62.50;;;7.00;99.90;;;;;;7371635;19;20976;-66
2023/04/23 02:46:06;;;;;;;108.28;60.92;;;7.10;99.90;;;;;;7370572;19;20022;-65
2023/04/23 02:48:38;;;;;;;115.38;63.38;;;7.00;99.90;;;;;;7368109;19;20356;-66
2023/04/23 02:51:05;;;;;;;121.43;65.57;;;7.00;99.90;;;;;;7371497;19;20018;-64
2023/04/23 02:53:32;;;;;;;130.43;65.75;;;7.00;99.90;;;;;;7368485;19;20050;-63
2023/04/23 02:55:58;;;;;;;113.72;67.20;;;7.00;99.90;;;;;;7369939;19;20019;-63
2023/04/23 02:58:26;;;;;;;144.48;69.93;;;7.00;99.90;;;;;;7368966;19;20497;-64
2023/04/23 03:00:57;;;;;;;138.10;69.70;;;7.00;99.90;;;;;;7369810;19;20022;-64
2023/04/23 03:03:25;;;;;;;161.68;71.22;;;7.10;99.90;;;;;;7371294;19;20110;-63
2023/04/23 03:05:52;;;;;;;146.55;72.97;;;7.10;99.90;;;;;;7368621;19;20972;-64
2023/04/23 03:08:19;;;;;;;303.40;90.03;;;7.20;99.90;;;;;;7372199;19;20018;-63
2023/04/23 03:10:46;;;;;;;314.35;91.00;;;7.20;99.90;;;;;;7366647;19;20074;-63
2023/04/23 03:13:13;;;;;;;553.35;110.70;;;7.30;99.90;;;;;;7370254;19;20056;-63
2023/04/23 03:15:40;;;;;;;323.40;92.68;;;7.30;99.90;;;;;;7366508;19;20105;-63
2023/04/23 03:18:07;;;;;;;510.45;101.80;;;7.30;99.90;;;;;;7369331;19;20060;-63
2023/04/23 03:20:34;;;;;;;407.85;94.55;;;7.30;99.90;;;;;;7368395;19;20029;-63
2023/04/23 03:23:01;;;;;;;436.35;94.03;;;7.30;99.90;;;;;;7371964;19;20059;-63
2023/04/23 03:25:31;;;;;;;596.08;106.32;;;7.30;99.90;;;;;;7369755;19;20022;-63
2023/04/23 03:27:58;;;;;;;692.00;114.57;;;7.40;99.90;;;;;;7370634;19;20835;-66
2023/04/23 03:30:26;;;;;;;654.50;110.57;;;7.40;99.90;;;;;;7369571;19;20018;-66
2023/04/23 03:32:54;;;;;;;645.22;106.70;;;7.40;99.90;;;;;;7367090;19;20147;-64
2023/04/23 03:35:21;;;;;;;744.20;120.63;;;7.40;99.90;;;;;;7367057;19;20018;-66
2023/04/23 03:37:49;;;;;;;702.78;113.10;;;7.40;99.90;;;;;;7370315;19;20033;-67
2023/04/23 03:40:15;;;;;;;598.78;110.40;;;7.50;99.90;;;;;;7370830;19;20042;-63
2023/04/23 03:42:44;;;;;;;742.75;116.97;;;7.50;99.90;;;;;;7368543;19;20502;-66
2023/04/23 03:45:15;;;;;;;593.53;111.63;;;7.50;99.90;;;;;;7367888;19;20406;-63
2023/04/23 03:47:43;;;;;;;772.03;128.18;;;7.50;99.90;;;;;;7363491;19;20025;-65
2023/04/23 03:50:13;;;;;;;645.22;123.32;;;7.60;99.90;;;;;;7370985;19;20884;-66
2023/04/23 03:52:41;;;;;;;458.88;110.57;;;7.60;99.90;;;;;;7364669;19;20030;-66
2023/04/23 03:55:14;;;;;;;669.67;124.25;;;7.60;99.90;;;;;;7369502;19;20026;-63
2023/04/23 03:57:44;;;;;;;599.80;119.20;;;7.60;99.90;;;;;;7363209;19;20229;-63
2023/04/23 04:00:24;;;;;;;493.77;111.63;;;7.60;99.90;;;;;;7372030;19;20011;-65
2023/04/23 04:02:50;;;;;;;577.47;120.93;;;7.60;99.90;;;;;;7364375;19;20021;-63
2023/04/23 04:05:17;;;;;;;761.20;127.03;;;7.70;99.90;;;;;;7371091;19;20074;-64
2023/04/23 04:07:50;;;;;;;677.90;126.88;;;7.70;99.90;;;;;;7366692;19;20022;-65
2023/04/23 04:10:17;;;;;;;651.70;123.43;;;7.70;99.90;;;;;;7370288;19;20026;-66
2023/04/23 04:12:46;;;;;;;686.03;121.28;;;7.70;99.90;;;;;;7364727;19;20015;-63
2023/04/23 04:15:13;;;;;;;676.15;126.13;;;7.70;99.90;;;;;;7371146;19;20027;-63
2023/04/23 04:17:39;;;;;;;699.55;123.53;;;7.70;99.90;;;;;;7364230;19;20040;-63
2023/04/23 04:20:10;;;;;;;456.35;112.95;;;7.70;99.90;;;;;;7369542;19;20486;-66
2023/04/23 04:22:36;;;;;;;313.75;105.90;;;7.80;99.90;;;;;;7368137;19;20026;-63
2023/04/23 04:25:04;;;;;;;426.83;109.85;;;7.80;99.90;;;;;;7369258;19;20939;-63
2023/04/23 04:27:33;;;;;;;338.02;104.47;;;7.80;99.90;;;;;;7362412;19;20082;-63
2023/04/23 04:30:00;;;;;;;274.55;99.75;;;7.80;99.90;;;;;;7364909;19;20018;-66
2023/04/23 04:32:27;;;;;;;355.42;97.40;;;7.80;99.90;;;;;;7370863;19;20015;-64
2023/04/23 04:34:53;;;;;;;362.20;100.57;;;7.80;99.90;;;;;;7366863;19;20026;-63
2023/04/23 04:37:20;;;;;;;622.67;112.70;;;7.80;99.90;;;;;;7369450;19;20019;-65
2023/04/23 04:39:50;;;;;;;621.58;115.53;;;7.80;99.90;;;;;;7365351;19;20018;-66
2023/04/23 04:42:19;;;;;;;550.67;105.80;;;7.70;99.90;;;;;;7369316;19;20029;-66
2023/04/23 04:44:46;;;;;;;576.20;106.95;;;7.70;99.90;;;;;;7366538;19;20018;-63
2023/04/23 04:47:12;;;;;;;533.00;104.63;;;7.70;99.90;;;;;;7370889;19;20414;-63
2023/04/23 04:49:38;;;;;;;478.88;103.90;;;7.70;99.90;;;;;;7373038;19;20029;-63
2023/04/23 04:52:05;;;;;;;448.25;102.50;;;7.70;99.90;;;;;;7375950;19;20015;-63
2023/04/23 04:54:31;;;;;;;397.00;102.43;;;7.70;99.90;;;;;;7374806;19;20056;-63
2023/04/23 04:56:57;;;;;;;438.48;106.85;;;7.80;99.90;;;;;;7375790;19;20623;-63
2023/04/23 04:59:23;;;;;;;303.80;95.57;;;7.80;99.90;;;;;;7374346;19;20568;-63
2023/04/23 05:01:50;;;;;;;343.35;104.28;;;7.90;99.90;;;;;;7373654;19;20022;-63
2023/04/23 05:04:16;;;;;;;323.55;102.90;;;8.00;99.90;;;;;;7375077;19;20014;-63
2023/04/23 05:06:43;;;;;;;244.82;91.03;;;8.00;99.90;;;;;;7373084;19;20015;-63
2023/04/23 05:09:10;;;;;;;323.60;101.25;;;8.00;99.90;;;;;;7376612;19;20038;-66
2023/04/23 05:11:37;;;;;;;270.35;95.53;;;8.10;99.90;;;;;;7373865;19;20426;-64
2023/04/23 05:14:03;;;;;;;233.32;91.97;;;8.00;99.90;;;;;;7375427;19;20490;-64
2023/04/23 05:16:29;;;;;;;226.93;95.90;;;8.00;99.90;;;;;;7375780;19;20018;-65
2023/04/23 05:18:56;;;;;;;234.68;92.95;;;8.10;99.90;;;;;;7373845;19;20022;-65
2023/04/23 05:21:22;;;;;;;224.75;95.85;;;8.10;99.90;;;;;;7377011;19;20026;-64
2023/04/23 05:23:48;;;;;;;210.13;88.65;;;8.10;99.90;;;;;;7374990;19;20053;-63
2023/04/23 05:26:15;;;;;;;205.93;87.57;;;8.10;99.90;;;;;;7377853;19;20605;-63
2023/04/23 05:28:41;;;;;;;209.77;92.72;;;8.10;99.90;;;;;;7373141;19;20106;-64
2023/04/23 05:31:07;;;;;;;200.10;86.45;;;8.20;99.90;;;;;;7376671;19;20019;-64
2023/04/23 05:33:33;;;;;;;203.20;89.93;;;8.20;99.90;;;;;;7374186;19;20014;-64
2023/04/23 05:36:00;;;;;;;195.93;86.30;;;8.20;99.90;;;;;;7376776;19;20328;-65
2023/04/23 05:38:26;;;;;;;173.68;85.05;;;8.30;99.90;;;;;;7375140;19;20022;-64
2023/04/23 05:40:53;;;;;;;186.25;89.05;;;8.30;99.90;;;;;;7370270;19;20022;-65
2023/04/23 05:43:19;;;;;;;181.90;89.00;;;8.30;99.90;;;;;;7372279;19;20022;-65
2023/04/23 05:45:45;;;;;;;174.13;88.32;;;8.40;99.90;;;;;;7374430;19;20023;-65
2023/04/23 05:48:12;;;;;;;186.38;85.60;;;8.40;99.90;;;;;;7372249;19;20453;-64
2023/04/23 05:50:38;;;;;;;171.98;85.68;;;8.50;99.90;;;;;;7369618;19;20019;-65
2023/04/23 05:53:05;;;;;;;167.52;80.15;;;8.50;99.90;;;;;;7370132;19;20029;-64
2023/04/23 05:55:31;;;;;;;168.95;82.50;;;8.60;99.90;;;;;;7372647;19;20018;-65
2023/04/23 05:57:57;;;;;;;161.27;82.15;;;8.60;99.90;;;;;;7370293;19;20053;-63
2023/04/23 06:00:24;;;;;;;152.43;77.93;;;8.70;99.90;;;;;;7370196;19;20372;-63
2023/04/23 06:02:50;;;;;;;142.48;78.03;;;8.80;99.90;;;;;;7373904;19;20010;-63
2023/04/23 06:05:17;;;;;;;127.15;73.30;;;9.00;99.90;;;;;;7373085;19;20808;-63
2023/04/23 06:07:43;;;;;;;113.32;66.75;;;9.10;99.90;;;;;;7373567;19;20015;-63
2023/04/23 06:10:10;;;;;;;104.05;64.63;;;9.40;99.90;;;;;;7373803;19;20061;-63
2023/04/23 06:12:38;;;;;;;98.65;61.83;;;9.60;99.90;;;;;;7367530;19;20057;-64
2023/04/23 06:15:06;;;;;;;94.68;66.15;;;9.70;99.90;;;;;;7371338;19;20583;-64
2023/04/23 06:17:33;;;;;;;92.13;63.83;;;9.70;99.90;;;;;;7372225;19;20022;-65
2023/04/23 06:19:59;;;;;;;87.60;60.80;;;9.70;99.90;;;;;;7371958;19;20014;-64
2023/04/23 06:22:28;;;;;;;83.50;61.13;;;9.90;99.90;;;;;;7373153;19;20038;-64
2023/04/23 06:24:54;;;;;;;80.82;58.75;;;10.00;99.90;;;;;;7371555;19;20018;-65
2023/04/23 06:27:21;;;;;;;80.95;56.60;;;10.00;99.90;;;;;;7372931;19;20026;-63
2023/04/23 06:29:50;;;;;;;75.93;55.95;;;10.10;99.90;;;;;;7370184;19;20014;-63
2023/04/23 06:32:18;;;;;;;72.53;56.08;;;10.30;99.90;;;;;;7371264;19;20019;-65
2023/04/23 06:34:45;;;;;;;72.20;54.65;;;10.40;99.90;;;;;;7372730;19;20018;-64
2023/04/23 06:37:12;;;;;;;64.22;52.78;;;10.50;99.90;;;;;;7369564;19;20018;-63
2023/04/23 06:39:38;;;;;;;69.65;51.70;;;10.70;99.90;;;;;;7371459;19;20045;-63
2023/04/23 06:42:05;;;;;;;68.68;53.35;;;10.80;99.90;;;;;;7364082;19;20021;-63
2023/04/23 06:44:45;;;;;;;66.57;51.13;;;10.90;99.90;;;;;;7369998;19;20051;-63
2023/04/23 06:47:14;;;;;;;62.38;49.88;;;11.20;99.90;;;;;;7368438;19;20779;-63
2023/04/23 06:49:47;;;;;;;60.03;48.63;;;11.30;99.90;;;;;;7368161;19;20485;-63
2023/04/23 06:52:14;;;;;;;59.25;46.88;;;11.50;99.90;;;;;;7371774;19;20026;-63
2023/04/23 06:54:40;;;;;;;55.25;46.35;;;11.50;99.90;;;;;;7368791;19;20022;-63
2023/04/23 06:57:06;;;;;;;51.45;42.50;;;11.70;99.90;;;;;;7368602;19;20649;-63
2023/04/23 06:59:33;;;;;;;51.00;43.08;;;11.80;99.90;;;;;;7365672;19;20462;-65
2023/04/23 07:02:00;;;;;;;46.80;40.50;;;12.00;99.90;;;;;;7368015;19;20381;-65
2023/04/23 07:04:26;;;;;;;46.10;40.80;;;12.10;99.90;;;;;;7358575;19;20022;-65
2023/04/23 07:06:53;;;;;;;57.67;51.45;;;12.20;99.90;;;;;;7362453;19;20030;-67
2023/04/23 07:09:19;;;;;;;47.53;40.63;;;12.50;99.90;;;;;;7368077;19;20656;-61
2023/04/23 07:11:46;;;;;;;44.22;39.42;;;12.70;99.90;;;;;;7351432;19;20641;-61
2023/04/23 07:14:12;;;;;;;45.10;38.50;;;12.80;99.90;;;;;;7357417;19;20030;-61
2023/04/23 07:16:39;;;;;;;44.05;37.75;;;12.70;99.90;;;;;;7365711;19;20019;-61
2023/04/23 07:19:05;;;;;;;42.40;37.90;;;13.00;99.90;;;;;;7371703;19;20654;-60
2023/04/23 07:21:31;;;;;;;45.13;38.25;;;13.20;99.90;;;;;;7363352;19;20010;-61
2023/04/23 07:23:59;;;;;;;41.67;37.25;;;13.50;99.90;;;;;;7370109;19;20339;-61
2023/04/23 07:26:26;;;;;;;42.35;36.00;;;13.40;99.90;;;;;;7364701;19;20061;-63
2023/04/23 07:28:52;;;;;;;39.78;35.63;;;13.30;99.90;;;;;;7363846;19;20772;-63
2023/04/23 07:31:19;;;;;;;39.97;35.20;;;13.30;99.90;;;;;;7368897;19;20019;-64
2023/04/23 07:33:46;;;;;;;38.13;34.22;;;13.60;99.90;;;;;;7367245;19;20047;-64
2023/04/23 07:36:13;;;;;;;39.80;35.25;;;13.60;99.90;;;;;;7372916;19;20030;-63
2023/04/23 07:38:39;;;;;;;39.42;35.22;;;13.90;99.90;;;;;;7365767;19;20033;-61
2023/04/23 07:41:06;;;;;;;37.95;33.97;;;14.20;99.90;;;;;;7369665;19;20010;-61
2023/04/23 07:43:33;;;;;;;35.10;31.35;;;14.10;99.90;;;;;;7369768;19;20018;-64
2023/04/23 07:45:59;;;;;;;36.47;32.38;;;14.20;99.90;;;;;;7368762;19;20122;-61
2023/04/23 07:48:25;;;;;;;36.20;32.50;;;14.40;99.90;;;;;;7369601;19;20031;-61
2023/04/23 07:50:52;;;;;;;36.55;32.85;;;14.60;99.90;;;;;;7372835;19;20014;-61
2023/04/23 07:53:18;;;;;;;32.65;29.25;;;14.40;99.90;;;;;;7370271;19;20036;-61
2023/04/23 07:55:45;;;;;;;34.25;30.73;;;14.80;99.90;;;;;;7370609;19;20019;-61
2023/04/23 07:58:11;;;;;;;32.33;29.13;;;15.20;99.90;;;;;;7366591;19;20014;-64
2023/04/23 08:00:37;;;;;;;32.63;29.40;;;15.70;99.90;;;;;;7370885;19;20423;-64
2023/04/23 08:03:04;;;;;;;30.75;27.63;;;15.90;99.90;;;;;;7366180;19;20371;-61
2023/04/23 08:05:31;;;;;;;32.63;28.98;;;16.10;99.90;;;;;;7369962;19;20366;-61
2023/04/23 08:07:57;;;;;;;31.70;28.55;;;16.10;99.90;;;;;;7366160;19;20017;-61
2023/04/23 08:10:23;;;;;;;32.20;29.00;;;16.20;99.90;;;;;;7368069;19;20022;-65
2023/04/23 08:12:49;;;;;;;32.60;29.17;;;16.40;99.90;;;;;;7363708;19;20022;-65
2023/04/23 08:15:15;;;;;;;30.45;27.48;;;16.60;99.90;;;;;;7369554;19;20086;-64
2023/04/23 08:17:43;;;;;;;29.30;26.33;;;16.80;99.90;;;;;;7368550;19;20015;-64
2023/04/23 08:20:10;;;;;;;29.25;26.42;;;16.80;99.90;;;;;;7371126;19;20027;-61
2023/04/23 08:22:36;;;;;;;30.02;27.15;;;16.90;99.90;;;;;;7370072;19;20019;-64
2023/04/23 08:25:03;;;;;;;30.20;27.23;;;17.30;99.90;;;;;;7380755;19;20114;-65
2023/04/23 08:27:30;;;;;;;28.73;25.85;;;17.30;99.90;;;;;;7370972;19;20029;-64
2023/04/23 08:29:56;;;;;;;28.30;25.67;;;17.30;99.90;;;;;;7373475;19;20527;-61
2023/04/23 08:32:22;;;;;;;27.98;25.17;;;17.60;99.90;;;;;;7372703;19;20966;-62
2023/04/23 08:34:49;;;;;;;26.67;24.20;;;18.00;99.90;;;;;;7376588;19;20037;-61
2023/04/23 08:37:15;;;;;;;28.70;26.00;;;17.90;99.90;;;;;;7374935;19;20015;-61
2023/04/23 08:39:42;;;;;;;26.83;24.13;;;18.00;99.90;;;;;;7375613;19;20861;-60
2023/04/23 08:42:32;;;;;;;25.88;23.40;;;18.30;99.90;;;;;;7375419;19;20367;-61
2023/04/23 08:44:59;;;;;;;25.83;23.45;;;18.30;99.90;;;;;;7369953;19;20507;-64
2023/04/23 08:47:28;;;;;;;26.75;24.10;;;18.10;99.90;;;;;;7376922;19;20024;-65
2023/04/23 08:49:58;;;;;;;25.75;23.05;;;18.30;99.90;;;;;;7373700;19;20021;-60
2023/04/23 08:52:28;;;;;;;26.63;24.08;;;17.90;99.90;;;;;;7375942;19;20675;-61
2023/04/23 08:54:59;;;;;;;22.23;20.00;;;17.90;99.90;;;;;;7374712;19;20025;-61
2023/04/23 08:57:26;;;;;;;23.30;20.90;;;18.00;99.90;;;;;;7377388;19;20018;-60
2023/04/23 08:59:54;;;;;;;23.40;21.00;;;18.30;99.90;;;;;;7375062;19;20352;-65
2023/04/23 09:02:21;;;;;;;21.02;18.80;;;18.10;99.90;;;;;;7377129;19;20019;-65
2023/04/23 09:04:47;;;;;;;20.35;18.27;;;18.50;99.90;;;;;;7371116;19;20034;-65
2023/04/23 09:07:14;;;;;;;20.20;18.20;;;18.90;99.90;;;;;;7373674;19;20026;-65
2023/04/23 09:09:40;;;;;;;19.05;17.10;;;19.30;99.90;;;;;;7366595;19;20010;-65
2023/04/23 09:12:08;;;;;;;18.38;16.48;;;19.60;99.90;;;;;;7376012;19;20018;-61
2023/04/23 09:14:34;;;;;;;18.30;16.48;;;19.10;99.90;;;;;;7370824;19;20090;-61
2023/04/23 09:17:04;;;;;;;18.38;16.33;;;19.30;99.90;;;;;;7371251;19;20642;-60
2023/04/23 09:19:30;;;;;;;16.88;15.07;;;19.20;99.90;;;;;;7375214;19;20498;-65
2023/04/23 09:21:57;;;;;;;18.92;17.02;;;19.50;99.90;;;;;;7375121;19;20408;-66
2023/04/23 09:24:25;;;;;;;16.85;15.20;;;19.20;99.90;;;;;;7375624;19;20018;-65
2023/04/23 09:26:52;;;;;;;17.00;15.20;;;19.40;99.90;;;;;;7376121;19;20018;-65
2023/04/23 09:29:22;;;;;;;16.92;15.13;;;19.90;99.90;;;;;;7371399;19;20082;-65
2023/04/23 09:31:54;;;;;;;16.73;13.65;;;19.50;99.90;;;;;;7373147;19;20018;-65
2023/04/23 09:34:24;;;;;;;15.32;12.75;;;20.00;99.90;;;;;;7372236;19;20018;-61
2023/04/23 09:36:52;;;;;;;14.60;12.20;;;20.10;99.90;;;;;;7375140;19;20025;-61
2023/04/23 09:39:22;;;;;;;13.60;12.02;;;20.60;99.90;;;;;;7373630;19;20018;-66
2023/04/23 09:41:52;;;;;;;15.63;12.18;;;20.80;99.90;;;;;;7370700;19;20036;-66
2023/04/23 09:44:25;;;;;;;15.27;11.57;;;20.60;99.90;;;;;;7372662;19;20019;-61
2023/04/23 09:46:52;;;;;;;14.02;11.45;;;20.60;99.90;;;;;;7376323;19;20078;-61
2023/04/23 09:49:18;;;;;;;14.40;11.32;;;20.80;99.90;;;;;;7371487;19;20048;-61
2023/04/23 09:51:46;;;;;;;12.73;9.80;;;20.70;99.90;;;;;;7372049;19;20029;-67
2023/04/23 09:54:21;;;;;;;14.20;10.07;;;20.30;99.90;;;;;;7370320;19;20384;-61
2023/04/23 09:57:04;;;;;;;12.13;9.68;;;19.80;99.90;;;;;;7369923;19;20022;-60
2023/04/23 09:59:30;;;;;;;14.25;9.52;;;19.30;99.90;;;;;;7373816;19;20026;-61
2023/04/23 10:02:01;;;;;;;12.25;9.13;;;19.50;99.90;;;;;;7368518;19;20015;-60
2023/04/23 10:04:27;;;;;;;12.98;9.13;;;19.50;99.90;;;;;;7369416;19;20011;-60
2023/04/23 10:06:55;;;;;;;11.65;9.23;;;19.50;99.90;;;;;;7368686;19;20091;-60
2023/04/23 10:09:23;;;;;;;14.20;8.85;;;19.30;99.90;;;;;;7372270;19;20793;-60
2023/04/23 10:11:56;;;;;;;10.82;7.68;;;19.20;99.90;;;;;;7372863;19;20517;-60
2023/04/23 10:14:24;;;;;;;11.13;7.00;;;19.10;99.90;;;;;;7367369;19;20035;-60
2023/04/23 10:16:56;;;;;;;13.75;6.78;;;18.70;99.90;;;;;;7373088;19;20893;-60
2023/04/23 10:19:23;;;;;;;9.20;7.00;;;19.20;99.90;;;;;;7369756;19;20482;-60
2023/04/23 10:21:54;;;;;;;11.90;7.78;;;19.00;99.90;;;;;;7372891;19;20026;-60
2023/04/23 10:24:23;;;;;;;12.57;7.82;;;18.70;99.90;;;;;;7368083;19;20033;-61
2023/04/23 10:26:52;;;;;;;13.38;6.78;;;18.90;99.90;;;;;;7367839;19;20026;-60
2023/04/23 10:29:28;;;;;;;9.32;5.68;;;19.60;99.90;;;;;;7363460;19;20396;-60
2023/04/23 10:31:59;;;;;;;10.90;6.28;;;20.10;99.90;;;;;;7368946;19;20046;-60
2023/04/23 10:34:26;;;;;;;12.13;5.85;;;20.40;99.90;;;;;;7366105;19;20015;-61
2023/04/23 10:36:53;;;;;;;10.40;6.45;;;20.40;99.90;;;;;;7371812;19;20101;-65
2023/04/23 10:39:21;;;;;;;9.52;5.95;;;20.30;99.90;;;;;;7365983;19;20122;-65
2023/04/23 10:41:48;;;;;;;9.70;5.13;;;20.10;99.90;;;;;;7366400;19;20014;-66
2023/04/23 10:44:17;;;;;;;6.75;4.82;;;19.60;99.90;;;;;;7369634;19;20014;-61
2023/04/23 10:46:57;;;;;;;7.07;4.28;;;20.20;99.90;;;;;;7366503;19;20025;-61
2023/04/23 10:49:24;;;;;;;10.48;5.10;;;20.30;96.20;;;;;;7363591;19;20027;-61
2023/04/23 10:52:03;;;;;;;9.30;4.32;;;21.00;99.90;;;;;;7369210;19;20062;-61
2023/04/23 10:54:32;;;;;;;7.18;3.72;;;21.90;88.00;;;;;;7369185;19;20017;-66
2023/04/23 10:57:05;;;;;;;7.95;4.78;;;21.50;76.30;;;;;;7367189;19;20014;-66
2023/04/23 10:59:33;;;;;;;9.25;4.55;;;20.90;84.50;;;;;;7366853;19;20063;-66
2023/04/23 11:02:10;;;;;;;9.02;4.07;;;21.30;91.00;;;;;;7369401;19;20390;-61
2023/04/23 11:04:53;;;;;;;8.68;3.58;;;20.90;75.50;;;;;;7350787;19;20061;-61
2023/04/23 11:07:19;;;;;;;6.97;3.67;;;20.20;75.60;;;;;;7363683;19;20026;-61
2023/04/23 11:09:47;;;;;;;6.63;3.80;;;20.00;84.60;;;;;;7365313;19;20018;-61
2023/04/23 11:12:33;;;;;;;9.15;3.58;;;20.00;88.70;;;;;;7364798;19;20578;-61
2023/04/23 11:15:12;;;;;;;9.27;3.05;;;20.60;92.80;;;;;;7367364;19;20493;-64
2023/04/23 11:17:46;;;;;;;7.80;2.97;;;21.50;77.00;;;;;;7365596;19;20732;-64
2023/04/23 11:20:14;;;;;;;7.88;2.70;;;21.00;70.30;;;;;;7366994;19;20054;-64
2023/04/23 11:22:47;;;;;;;9.10;3.20;;;20.40;67.20;;;;;;7368083;19;20022;-61
2023/04/23 11:25:19;;;;;;;7.43;3.08;;;20.10;68.60;;;;;;7364300;19;20014;-61
2023/04/23 11:27:47;;;;;;;7.40;3.45;;;19.60;76.60;;;;;;7365941;19;20025;-68
2023/04/23 11:30:16;;;;;;;8.88;2.90;;;19.40;79.70;;;;;;7368981;19;20019;-69
2023/04/23 11:32:49;;;;;;;7.22;3.03;;;19.20;84.40;;;;;;7372887;19;20018;-69
2023/04/23 11:35:21;;;;;;;6.05;2.60;;;19.60;81.50;;;;;;7368980;19;20018;-62
2023/04/23 11:37:48;;;;;;;9.95;3.30;;;19.80;76.20;;;;;;7371761;19;20023;-69
2023/04/23 11:40:19;;;;;;;8.07;2.20;;;20.30;76.30;;;;;;7370602;19;20014;-69
2023/04/23 11:42:46;;;;;;;;;;;20.90;71.20;;;;;;7371141;19;20018;-69
2023/04/23 11:45:19;;;;;;;7.18;2.80;;;21.50;64.00;;;;;;7370656;19;19929;-70
2023/04/23 11:47:47;;;;;;;6.82;2.88;;;22.00;63.80;;;;;;7366762;19;20015;-69
2023/04/23 11:50:23;;;;;;;5.85;2.42;;;22.70;61.50;;;;;;7365519;19;20022;-68
2023/04/23 11:52:50;;;;;;;5.18;2.38;;;22.80;59.50;;;;;;7363661;19;20022;-67
2023/04/23 11:55:16;;;;;;;7.00;2.45;;;23.20;59.30;;;;;;7372105;19;20485;-70
2023/04/23 11:57:44;;;;;;;7.05;2.72;;;22.90;58.00;;;;;;7363364;19;20620;-71
2023/04/23 12:00:18;;;;;;;5.10;2.40;;;22.20;57.30;;;;;;7364748;19;20089;-70
2023/04/23 12:03:04;;;;;;;6.15;2.30;;;21.80;59.00;;;;;;7367974;19;20482;-69
2023/04/23 12:05:38;;;;;;;6.97;2.13;;;21.10;61.50;;;;;;7366652;19;20134;-70
2023/04/23 12:08:11;;;;;;;7.85;2.75;;;20.90;62.50;;;;;;7366213;19;20082;-70
2023/04/23 12:10:50;;;;;;;7.22;2.30;;;20.50;62.00;;;;;;7369982;19;20054;-70
2023/04/23 12:13:20;;;;;;;8.20;3.10;;;20.80;62.60;;;;;;7364265;19;20019;-61
2023/04/23 12:15:48;;;;;;;8.18;2.63;;;21.00;61.40;;;;;;7366696;19;20019;-62
2023/04/23 12:18:15;;;;;;;4.75;2.28;;;21.00;62.70;;;;;;7364947;19;20011;-62
2023/04/23 12:20:42;;;;;;;7.57;2.67;;;21.20;61.00;;;;;;7367914;19;20019;-62
2023/04/23 12:23:08;;;;;;;5.75;2.58;;;21.20;61.10;;;;;;7369307;19;20018;-63
2023/04/23 12:25:36;;;;;;;7.43;2.90;;;21.00;60.20;;;;;;7367214;19;20015;-62
2023/04/23 12:28:06;;;;;;;7.18;2.47;;;20.90;59.80;;;;;;7366521;19;20019;-62
2023/04/23 12:30:42;;;;;;;9.20;2.60;;;21.10;59.40;;;;;;7363543;19;20893;-62
2023/04/23 12:33:10;;;;;;;4.90;1.90;;;21.10;61.90;;;;;;7366787;19;20011;-62
2023/04/23 12:35:37;;;;;;;5.38;2.45;;;21.30;59.10;;;;;;7365710;19;20022;-61